createdAt,value
2018-07-10T00:00:07.931Z,99793.39
2018-07-10T00:05:38.248Z,99787.95
2018-07-10T00:10:40.224Z,99800.44
2018-07-10T00:15:25.127Z,99804.25
2018-07-10T00:20:09.176Z,99803.61
2018-07-10T00:24:56.026Z,99802.34
2018-07-10T00:29:39.493Z,99797.55
2018-07-10T00:34:26.437Z,99796.96
2018-07-10T00:39:11.086Z,99798.12
2018-07-10T00:43:54.833Z,99796.63
2018-07-10T00:48:39.451Z,99801.61
2018-07-10T00:53:22.972Z,99798.06
2018-07-10T00:58:07.480Z,99799.90
2018-07-10T01:02:51.032Z,99796.50
2018-07-10T01:07:34.604Z,99801.80
2018-07-10T01:12:18.197Z,99791.55
2018-07-10T01:17:04.832Z,99779.84
2018-07-10T01:21:49.046Z,99771.73
2018-07-10T01:26:41.598Z,99779.50
2018-07-10T01:31:25.041Z,99786.02
2018-07-10T01:36:09.829Z,99783.20
2018-07-10T01:40:53.227Z,99785.36
2018-07-10T01:45:37.947Z,99789.65
2018-07-10T01:50:21.420Z,99783.09
2018-07-10T01:55:05.865Z,99791.30
2018-07-10T01:59:50.818Z,99790.03
2018-07-10T02:04:38.439Z,99793.83
2018-07-10T02:09:22.025Z,99788.25
2018-07-10T02:14:05.595Z,99781.25
2018-07-10T02:18:48.948Z,99790.90
2018-07-10T02:23:42.362Z,99788.11
2018-07-10T02:28:26.783Z,99785.22
2018-07-10T02:33:10.221Z,99772.95
2018-07-10T02:37:53.829Z,99773.36
2018-07-10T02:42:37.225Z,99765.89
2018-07-10T02:47:22.101Z,99750.08
2018-07-10T02:52:07.169Z,99733.31
2018-07-10T02:56:54.357Z,99728.52
2018-07-10T03:01:37.853Z,99726.08
2018-07-10T03:06:22.378Z,99728.30
2018-07-10T03:11:06.596Z,99725.63
2018-07-10T03:15:53.744Z,99743.36
2018-07-10T03:20:37.298Z,99748.28
2018-07-10T03:25:24.644Z,99752.43
2018-07-10T03:30:08.326Z,99752.69
2018-07-10T03:34:53.018Z,99760.84
2018-07-10T03:39:40.520Z,99769.11
2018-07-10T03:44:28.920Z,99773.80
2018-07-10T03:49:12.321Z,99776.44
2018-07-10T03:53:56.007Z,99766.09
2018-07-10T03:58:39.532Z,99765.61
2018-07-10T04:03:29.156Z,99763.70
2018-07-10T04:08:17.770Z,99764.31
2018-07-10T04:13:12.617Z,99763.00
2018-07-10T04:18:08.748Z,99760.91
2018-07-10T04:22:55.362Z,99772.78
2018-07-10T04:27:52.989Z,99773.98
2018-07-10T04:32:38.793Z,99780.08
2018-07-10T04:37:27.770Z,99791.05
2018-07-10T04:42:28.500Z,99804.70
2018-07-10T04:47:22.938Z,99800.06
2018-07-10T04:52:23.707Z,99794.93
2018-07-10T04:57:14.498Z,99792.63
2018-07-10T05:01:57.882Z,99793.17
2018-07-10T05:06:41.480Z,99795.17
2018-07-10T05:11:25.688Z,99801.66
2018-07-10T05:16:12.228Z,99805.12
2018-07-10T05:20:55.716Z,99800.97
2018-07-10T05:25:46.799Z,99806.56
2018-07-10T05:30:30.341Z,99808.34
2018-07-10T05:35:14.881Z,99805.50
2018-07-10T05:40:01.683Z,99804.41
2018-07-10T05:44:46.365Z,99792.23
2018-07-10T05:49:32.309Z,99800.25
2018-07-10T05:54:15.991Z,99804.88
2018-07-10T05:59:02.621Z,99799.46
2018-07-10T06:03:49.592Z,99810.37
2018-07-10T06:08:33.204Z,99796.06
2018-07-10T06:13:16.805Z,99789.38
2018-07-10T06:18:01.276Z,99779.52
2018-07-10T06:22:44.914Z,99790.80
2018-07-10T06:27:39.984Z,99794.03
2018-07-10T06:32:23.378Z,99804.38
2018-07-10T06:37:11.537Z,99811.84
2018-07-10T06:42:01.445Z,99826.55
2018-07-10T06:46:49.005Z,99824.14
2018-07-10T06:51:32.593Z,99820.52
2018-07-10T06:56:27.626Z,99822.36
2018-07-10T07:01:11.168Z,99830.44
2018-07-10T07:05:58.471Z,99829.06
2018-07-10T07:10:42.070Z,99829.22
2018-07-10T07:15:29.348Z,99836.12
2018-07-10T07:20:12.812Z,99820.70
2018-07-10T07:25:01.261Z,99808.55
2018-07-10T07:29:44.655Z,99805.72
2018-07-10T07:34:35.249Z,99799.41
2018-07-10T07:39:18.778Z,99798.45
2018-07-10T07:44:06.283Z,99792.95
2018-07-10T07:48:49.565Z,99789.98
2018-07-10T07:53:36.634Z,99785.16
2018-07-10T07:58:20.092Z,99774.84
2018-07-10T08:03:03.511Z,99766.10
2018-07-10T08:07:47.166Z,99763.84
2018-07-10T08:12:32.168Z,99766.63
2018-07-10T08:17:16.899Z,99768.94
2018-07-10T08:22:00.371Z,99774.59
2018-07-10T08:26:46.692Z,99772.97
2018-07-10T08:31:30.904Z,99782.41
2018-07-10T08:36:15.450Z,99783.88
2018-07-10T08:40:59.095Z,99776.62
2018-07-10T08:45:47.972Z,99775.78
2018-07-10T08:50:31.525Z,99770.59
2018-07-10T08:55:19.189Z,99775.68
2018-07-10T09:00:03.311Z,99774.22
2018-07-10T09:04:48.042Z,99775.59
2018-07-10T09:09:31.567Z,99776.33
2018-07-10T09:14:17.046Z,99780.57
2018-07-10T09:19:00.444Z,99777.50
2018-07-10T09:23:47.119Z,99774.77
2018-07-10T09:28:37.817Z,99779.05
2018-07-10T09:33:22.484Z,99770.47
2018-07-10T09:38:05.912Z,99779.64
2018-07-10T09:42:55.239Z,99785.16
2018-07-10T09:47:38.780Z,99771.89
2018-07-10T09:52:22.293Z,99770.00
2018-07-10T09:57:06.065Z,99770.03
2018-07-10T10:01:50.617Z,99772.08
2018-07-10T10:06:37.087Z,99754.83
2018-07-10T10:11:20.490Z,99758.36
2018-07-10T10:16:07.553Z,99757.14
2018-07-10T10:20:51.009Z,99750.11
2018-07-10T10:25:54.160Z,99750.78
2018-07-10T10:30:38.981Z,99750.50
2018-07-10T10:35:26.123Z,99745.98
2018-07-10T10:40:09.573Z,99732.84
2018-07-10T10:44:59.999Z,99733.45
2018-07-10T10:49:43.618Z,99728.19
2018-07-10T10:54:31.066Z,99736.99
2018-07-10T10:59:15.375Z,99729.66
2018-07-10T11:03:59.113Z,99712.39
2018-07-10T11:08:42.573Z,99708.84
2018-07-10T11:13:29.858Z,99705.52
2018-07-10T11:20:22.369Z,99698.92
2018-07-10T11:25:08.765Z,99695.13
2018-07-10T11:29:52.237Z,99693.45
2018-07-10T11:34:36.524Z,99697.24
2018-07-10T11:39:19.847Z,99699.05
2018-07-10T11:44:08.903Z,99710.13
2018-07-10T11:48:52.465Z,99707.70
2018-07-10T11:53:39.542Z,99711.05
2018-07-10T11:58:22.999Z,99709.36
2018-07-10T12:03:11.797Z,99699.98
2018-07-10T12:07:58.391Z,99694.39
2018-07-10T12:12:43.196Z,99696.71
2018-07-10T12:17:26.647Z,99689.72
2018-07-10T12:22:10.054Z,99691.70
2018-07-10T12:26:54.897Z,99684.06
2018-07-10T12:31:38.449Z,99675.15
2018-07-10T12:36:22.160Z,99671.28
2018-07-10T12:41:05.655Z,99672.13
2018-07-10T12:45:50.202Z,99683.30
2018-07-10T12:50:33.698Z,99685.30
2018-07-10T12:55:24.372Z,99681.73
2018-07-10T13:00:07.965Z,99673.16
2018-07-10T13:04:57.149Z,99681.09
2018-07-10T13:09:40.707Z,99681.61
2018-07-10T13:14:25.427Z,99665.50
2018-07-10T13:19:08.874Z,99656.91
2018-07-10T13:23:52.409Z,99655.06
2018-07-10T13:28:35.972Z,99654.59
2018-07-10T13:33:20.755Z,99663.48
2018-07-10T13:38:05.113Z,99654.06
2018-07-10T13:42:58.872Z,99645.11
2018-07-10T13:47:42.373Z,99649.91
2018-07-10T13:52:27.085Z,99651.61
2018-07-10T13:57:10.598Z,99655.64
2018-07-10T14:01:54.164Z,99677.86
2018-07-10T14:06:38.411Z,99676.67
2018-07-10T14:11:36.618Z,99662.51
2018-07-10T14:16:24.110Z,99679.41
2018-07-10T14:21:09.109Z,99682.41
2018-07-10T14:25:58.463Z,99692.98
2018-07-10T14:30:41.979Z,99695.89
2018-07-10T14:35:29.281Z,99688.34
2018-07-10T14:40:12.782Z,99679.06
2018-07-10T14:44:56.410Z,99667.26
2018-07-10T14:49:41.059Z,99660.55
2018-07-10T14:54:25.546Z,99660.36
2018-07-10T14:59:09.721Z,99700.12
2018-07-10T15:03:53.459Z,99711.92
2018-07-10T15:08:37.038Z,99719.49
2018-07-10T15:13:21.841Z,99725.73
2018-07-10T15:18:10.771Z,99719.83
2018-07-10T15:22:57.949Z,99711.75
2018-07-10T15:27:41.425Z,99704.84
2018-07-10T15:32:29.446Z,99702.33
2018-07-10T15:37:12.939Z,99702.84
2018-07-10T15:41:56.607Z,99720.17
2018-07-10T15:46:40.175Z,99713.95
2018-07-10T15:51:23.875Z,99713.76
2018-07-10T15:56:11.395Z,99715.11
2018-07-10T16:00:54.919Z,99714.27
2018-07-10T16:05:42.342Z,99723.86
2018-07-10T16:10:27.019Z,99734.31
2018-07-10T16:15:13.995Z,99733.98
2018-07-10T16:20:08.895Z,99745.95
2018-07-10T16:25:00.777Z,99731.64
2018-07-10T16:29:45.690Z,99725.22
2018-07-10T16:34:33.142Z,99730.44
2018-07-10T16:39:17.099Z,99729.23
2018-07-10T16:44:06.144Z,99747.58
2018-07-10T16:49:05.924Z,99746.25
2018-07-10T16:54:01.588Z,99751.16
2018-07-10T16:58:45.157Z,99744.25
2018-07-10T17:03:30.446Z,99748.60
2018-07-10T17:08:15.188Z,99746.77
2018-07-10T17:12:58.665Z,99742.37
2018-07-10T17:17:42.170Z,99755.20
2018-07-10T17:22:26.764Z,99748.60
2018-07-10T17:27:10.176Z,99751.99
2018-07-10T17:31:57.678Z,99747.27
2018-07-10T17:36:42.455Z,99744.03
2018-07-10T17:41:27.812Z,99754.64
2018-07-10T17:46:12.920Z,99764.72
2018-07-10T17:50:56.275Z,99792.23
2018-07-10T17:55:41.049Z,99801.03
2018-07-10T18:00:24.502Z,99806.16
2018-07-10T18:05:12.015Z,99804.31
2018-07-10T18:09:55.543Z,99809.58
2018-07-10T18:14:51.954Z,99822.81
2018-07-10T18:19:40.145Z,99824.08
2018-07-10T18:24:24.112Z,99820.84
2018-07-10T18:29:07.794Z,99832.73
2018-07-10T18:34:01.264Z,99824.55
2018-07-10T18:38:50.878Z,99820.12
2018-07-10T18:43:37.115Z,99837.45
2018-07-10T18:48:25.732Z,99831.09
2018-07-10T18:53:10.905Z,99831.22
2018-07-10T18:58:01.946Z,99841.63
2018-07-10T19:02:53.819Z,99858.20
2018-07-10T19:07:40.125Z,99854.41
2018-07-10T19:12:23.769Z,99860.15
2018-07-10T19:17:13.989Z,99871.00
2018-07-10T19:22:02.096Z,99872.27
2018-07-10T19:26:47.721Z,99874.63
2018-07-10T19:31:33.844Z,99888.09
2018-07-10T19:36:18.270Z,99894.80
2018-07-10T19:41:01.786Z,99902.53
2018-07-10T19:45:49.612Z,99903.44
2018-07-10T19:50:38.853Z,99897.70
2018-07-10T19:55:27.447Z,99900.74
2018-07-10T20:00:10.847Z,99895.45
2018-07-10T20:05:07.770Z,99893.95
2018-07-10T20:09:58.293Z,99882.65
2018-07-10T20:14:58.983Z,99881.70
2018-07-10T20:19:48.205Z,99894.86
2018-07-10T20:24:33.131Z,99884.52
2018-07-10T20:29:27.548Z,99894.20
2018-07-10T20:34:56.817Z,99888.05
2018-07-10T20:39:40.311Z,99886.41
2018-07-10T20:44:24.736Z,99885.24
2018-07-10T20:49:08.229Z,99882.39
2018-07-10T20:54:21.484Z,99866.02
2018-07-10T20:59:13.103Z,99867.30
2018-07-10T21:04:02.642Z,99865.38
2018-07-10T21:09:11.469Z,99863.75
2018-07-10T21:14:00.914Z,99874.25
2018-07-10T21:19:21.390Z,99882.25
2018-07-10T21:24:21.356Z,99883.27
2018-07-10T21:29:22.629Z,99890.98
2018-07-10T21:34:25.473Z,99893.84
2018-07-10T21:39:16.130Z,99883.61
2018-07-10T21:46:11.783Z,99885.29
2018-07-10T21:50:55.324Z,99889.73
2018-07-10T21:55:38.887Z,99893.06
2018-07-10T22:00:32.055Z,99894.52
2018-07-10T22:05:18.620Z,99894.84
2018-07-10T22:10:08.340Z,99896.84
2018-07-10T22:14:52.996Z,99906.00
2018-07-10T22:19:39.912Z,99904.97
2018-07-10T22:24:26.653Z,99900.17
2018-07-10T22:29:10.948Z,99896.29
2018-07-10T22:33:54.560Z,99906.34
2018-07-10T22:38:38.068Z,99906.16
2018-07-10T22:43:21.821Z,99901.17
2018-07-10T22:48:05.323Z,99894.39
2018-07-10T22:52:57.038Z,99894.45
2018-07-10T22:57:40.448Z,99895.65
2018-07-10T23:02:24.564Z,99893.75
2018-07-10T23:07:09.027Z,99891.81
2018-07-10T23:11:53.413Z,99896.28
2018-07-10T23:16:40.163Z,99894.52
2018-07-10T23:21:28.146Z,99898.93
2018-07-10T23:26:13.860Z,99895.47
2018-07-10T23:30:57.222Z,99900.58
2018-07-10T23:35:42.098Z,99895.98
2018-07-10T23:40:25.479Z,99896.70
2018-07-10T23:45:22.056Z,99899.98
